Terminal Aerodrome Forecast
Issued by NWS

Home | Current Version | Previous Version | Text Only | Print | Product List | Glossary On
Versions: 1 2 3 4 5 6 7 8 9 10 11 12 13 14
053
FTUS46 KMTR 041736
TAFSJC
TAF
KSJC 041736Z 0418/0518 VRB05KT P6SM VCSH SCT020 BKN120
     FM042100 29011KT P6SM VCSH SCT020 SCT150
     FM042300 29013KT P6SM VCSH FEW025 FEW150
     FM050400 24011KT P6SM VCSH SCT020 BKN040
     FM050800 16008KT P6SM VCSH BKN015 OVC030
     FM051000 15007KT P6SM VCSH BKN012 OVC025
     FM051700 17007KT P6SM VCSH SCT014 BKN035=

USA.gov is the U.S. government's official web portal to all federal, state and local government web resources and services.